Time;durP1;ratioP1;P1;durP2;ratioP2;P2;SDS_P1;SDS_P2;PMS_P1;PMS_P2;Temp;Humidity;BMP_temperature;BMP_pressure;BME280_temperature;BME280_humidity;BME280_pressure;Samples;Min_cycle;Max_cycle;Signal;HPM_P1;HPM_P2
2024/02/04 00:01:45;;;;;;;18.37;7.50;;;;;;;;;;5011194;28;20033;-58
2024/02/04 00:04:11;;;;;;;19.47;7.10;;;;;;;;;;5005969;28;20029;-59
2024/02/04 00:06:36;;;;;;;19.73;6.80;;;;;;;;;;5010890;28;20014;-59
2024/02/04 00:09:03;;;;;;;24.90;7.90;;;;;;;;;;5007656;28;20029;-59
2024/02/04 00:11:28;;;;;;;27.33;8.23;;;;;;;;;;5010732;28;20403;-59
2024/02/04 00:13:54;;;;;;;17.43;7.03;;;;;;;;;;5009426;28;20021;-59
2024/02/04 00:16:19;;;;;;;20.77;7.97;;;;;;;;;;5010632;28;20018;-59
2024/02/04 00:18:44;;;;;;;20.13;7.47;;;;;;;;;;5012499;28;20068;-59
2024/02/04 00:21:09;;;;;;;25.70;7.80;;;;;;;;;;5008741;28;20058;-59
2024/02/04 00:23:35;;;;;;;24.27;7.67;;;;;;;;;;5009320;28;20394;-59
2024/02/04 00:26:00;;;;;;;19.47;6.50;;;;;;;;;;5007474;28;20084;-59
2024/02/04 00:28:27;;;;;;;19.53;7.67;;;;;;;;;;5009656;28;20459;-59
2024/02/04 00:30:55;;;;;;;21.70;7.47;;;;;;;;;;5009893;28;20037;-59
2024/02/04 00:33:20;;;;;;;22.00;8.13;;;;;;;;;;5008021;28;20140;-60
2024/02/04 00:35:45;;;;;;;28.73;9.53;;;;;;;;;;5003752;28;20037;-59
2024/02/04 00:38:11;;;;;;;24.83;8.03;;;;;;;;;;5005576;28;20364;-60
2024/02/04 00:40:36;;;;;;;26.13;9.40;;;;;;;;;;5007927;28;20054;-59
2024/02/04 00:43:01;;;;;;;28.03;9.37;;;;;;;;;;5010400;28;20041;-59
2024/02/04 00:45:26;;;;;;;27.70;8.73;;;;;;;;;;5008198;28;20030;-60
2024/02/04 00:47:52;;;;;;;28.13;9.10;;;;;;;;;;5004715;28;20786;-67
2024/02/04 00:50:17;;;;;;;27.13;9.37;;;;;;;;;;5011312;28;20041;-68
2024/02/04 00:52:42;;;;;;;30.80;9.73;;;;;;;;;;5011087;28;20111;-66
2024/02/04 00:55:08;;;;;;;26.60;10.03;;;;;;;;;;5009748;28;20041;-67
2024/02/04 00:57:33;;;;;;;23.57;9.47;;;;;;;;;;5008412;28;20778;-67
2024/02/04 00:59:58;;;;;;;31.67;10.23;;;;;;;;;;5007794;28;20021;-68
2024/02/04 01:02:23;;;;;;;30.60;10.63;;;;;;;;;;5006916;28;20025;-66
2024/02/04 01:04:50;;;;;;;26.87;10.83;;;;;;;;;;5009510;28;20053;-67
2024/02/04 01:07:15;;;;;;;36.80;11.50;;;;;;;;;;5004384;28;20466;-67
2024/02/04 01:09:40;;;;;;;34.93;11.47;;;;;;;;;;5010369;28;20026;-68
2024/02/04 01:12:07;;;;;;;27.00;9.90;;;;;;;;;;5009916;28;20466;-66
2024/02/04 01:14:32;;;;;;;25.03;10.00;;;;;;;;;;5010110;28;20029;-66
2024/02/04 01:16:57;;;;;;;28.27;10.27;;;;;;;;;;5009810;28;20033;-67
2024/02/04 01:19:23;;;;;;;25.43;10.30;;;;;;;;;;5009159;28;20045;-67
2024/02/04 01:21:48;;;;;;;17.63;8.00;;;;;;;;;;5015145;28;20032;-64
2024/02/04 01:24:13;;;;;;;16.83;6.87;;;;;;;;;;5008968;28;20042;-67
2024/02/04 01:26:38;;;;;;;21.97;7.87;;;;;;;;;;5008651;28;20463;-66
2024/02/04 01:29:03;;;;;;;18.60;8.40;;;;;;;;;;5006348;28;20472;-67
2024/02/04 01:31:29;;;;;;;19.43;7.80;;;;;;;;;;5012247;28;20068;-67
2024/02/04 01:33:54;;;;;;;20.87;8.60;;;;;;;;;;5010767;28;20076;-67
2024/02/04 01:36:19;;;;;;;20.53;8.43;;;;;;;;;;5011163;28;20057;-67
2024/02/04 01:38:45;;;;;;;20.97;7.67;;;;;;;;;;5008845;28;20489;-67
2024/02/04 01:41:10;;;;;;;21.27;7.80;;;;;;;;;;5011691;28;20030;-67
2024/02/04 01:43:35;;;;;;;26.30;7.97;;;;;;;;;;5017966;28;20037;-67
2024/02/04 01:46:00;;;;;;;20.87;7.80;;;;;;;;;;5007793;28;20021;-66
2024/02/04 01:48:26;;;;;;;27.90;5.90;;;;;;;;;;5014073;28;20494;-67
2024/02/04 01:50:53;;;;;;;17.00;6.27;;;;;;;;;;5012496;28;20018;-67
2024/02/04 01:53:21;;;;;;;18.10;5.90;;;;;;;;;;5015349;28;20029;-67
2024/02/04 01:55:48;;;;;;;12.23;5.80;;;;;;;;;;5010484;28;20034;-67
2024/02/04 01:58:14;;;;;;;13.43;5.60;;;;;;;;;;5010232;28;20095;-67
2024/02/04 02:00:40;;;;;;;13.57;5.03;;;;;;;;;;5007383;28;20038;-67
2024/02/04 02:03:06;;;;;;;12.43;4.60;;;;;;;;;;5009781;28;20030;-65
2024/02/04 02:05:32;;;;;;;12.03;5.10;;;;;;;;;;5011337;28;20176;-67
2024/02/04 02:07:57;;;;;;;16.03;4.50;;;;;;;;;;5012937;28;20128;-67
2024/02/04 02:10:23;;;;;;;14.97;4.60;;;;;;;;;;5008011;28;20374;-67
2024/02/04 02:12:49;;;;;;;16.40;4.83;;;;;;;;;;5012310;28;20394;-66
2024/02/04 02:15:15;;;;;;;11.50;4.57;;;;;;;;;;5013432;28;20034;-66
2024/02/04 02:17:48;;;;;;;11.90;4.20;;;;;;;;;;5009785;28;20037;-67
2024/02/04 02:20:21;;;;;;;14.00;5.57;;;;;;;;;;5011654;28;20097;-67
2024/02/04 02:22:54;;;;;;;12.67;4.53;;;;;;;;;;5008901;28;20041;-66
2024/02/04 02:25:20;;;;;;;18.83;4.90;;;;;;;;;;5009653;28;20042;-67
2024/02/04 02:27:49;;;;;;;15.30;4.43;;;;;;;;;;5012057;28;20030;-66
2024/02/04 02:30:15;;;;;;;20.73;5.77;;;;;;;;;;5005306;28;20049;-67
2024/02/04 02:32:40;;;;;;;15.40;4.67;;;;;;;;;;5009966;28;20357;-67
2024/02/04 02:35:06;;;;;;;19.50;4.57;;;;;;;;;;5014957;28;20080;-67
2024/02/04 02:37:52;;;;;;;15.23;4.80;;;;;;;;;;5010046;28;20017;-66
2024/02/04 02:40:23;;;;;;;16.23;4.53;;;;;;;;;;4993881;28;20125;-68
2024/02/04 02:42:51;;;;;;;12.13;4.28;;;;;;;;;;5013121;28;20032;-67
2024/02/04 02:45:17;;;;;;;18.77;4.90;;;;;;;;;;5011955;28;20033;-67
2024/02/04 02:47:42;;;;;;;14.00;4.70;;;;;;;;;;5010295;28;20025;-66
2024/02/04 02:50:08;;;;;;;16.77;4.67;;;;;;;;;;5012322;28;20455;-67
2024/02/04 02:52:33;;;;;;;15.33;4.27;;;;;;;;;;5009051;28;20068;-67
2024/02/04 02:54:59;;;;;;;13.30;4.27;;;;;;;;;;5009924;28;20036;-67
2024/02/04 02:57:24;;;;;;;16.23;4.87;;;;;;;;;;5008917;28;20486;-67
2024/02/04 02:59:49;;;;;;;12.27;4.20;;;;;;;;;;5011598;28;20026;-66
2024/02/04 03:02:14;;;;;;;14.77;4.30;;;;;;;;;;5006790;28;20042;-67
2024/02/04 03:04:40;;;;;;;15.53;4.73;;;;;;;;;;5012944;28;20352;-67
2024/02/04 03:07:07;;;;;;;19.37;5.07;;;;;;;;;;5010516;28;20352;-67
2024/02/04 03:09:32;;;;;;;17.17;4.40;;;;;;;;;;5007648;28;20120;-59
2024/02/04 03:11:57;;;;;;;13.77;4.27;;;;;;;;;;5010601;28;20101;-59
2024/02/04 03:14:23;;;;;;;10.80;4.10;;;;;;;;;;5015336;28;20021;-58
2024/02/04 03:16:48;;;;;;;12.30;3.43;;;;;;;;;;5011050;28;20528;-61
2024/02/04 03:19:13;;;;;;;12.77;3.80;;;;;;;;;;5008630;28;20112;-59
2024/02/04 03:21:38;;;;;;;13.33;3.50;;;;;;;;;;5011676;28;20030;-59
2024/02/04 03:24:04;;;;;;;14.57;3.30;;;;;;;;;;5007797;28;20616;-58
2024/02/04 03:26:29;;;;;;;13.17;3.27;;;;;;;;;;5013286;28;20032;-58
2024/02/04 03:28:54;;;;;;;11.67;3.53;;;;;;;;;;5005923;28;20034;-58
2024/02/04 03:31:23;;;;;;;13.53;3.27;;;;;;;;;;5010445;28;20056;-58
2024/02/04 03:33:48;;;;;;;14.40;3.37;;;;;;;;;;5010549;28;20140;-61
2024/02/04 03:36:18;;;;;;;12.43;3.07;;;;;;;;;;5017786;28;20431;-58
2024/02/04 03:38:44;;;;;;;14.90;2.80;;;;;;;;;;5011034;28;20034;-58
2024/02/04 03:41:09;;;;;;;10.97;2.43;;;;;;;;;;5010480;28;20036;-60
2024/02/04 03:43:36;;;;;;;11.37;3.13;;;;;;;;;;5010103;28;20034;-59
2024/02/04 03:46:01;;;;;;;5.77;1.93;;;;;;;;;;5006661;28;20432;-58
2024/02/04 03:48:26;;;;;;;8.43;2.60;;;;;;;;;;5009158;28;20104;-58
2024/02/04 03:50:51;;;;;;;8.03;2.10;;;;;;;;;;5009445;28;20426;-58
2024/02/04 03:53:17;;;;;;;11.30;2.40;;;;;;;;;;5009074;28;20034;-59
2024/02/04 03:55:42;;;;;;;11.37;2.00;;;;;;;;;;5009462;28;20112;-59
2024/02/04 03:58:07;;;;;;;9.40;2.00;;;;;;;;;;5014857;28;20041;-58
2024/02/04 04:00:33;;;;;;;10.73;2.30;;;;;;;;;;5007001;28;20042;-58
2024/02/04 04:02:58;;;;;;;14.47;2.40;;;;;;;;;;5010817;28;20100;-58
2024/02/04 04:05:23;;;;;;;12.93;2.03;;;;;;;;;;5008842;28;20025;-62
2024/02/04 04:07:49;;;;;;;7.47;1.90;;;;;;;;;;5012087;28;20040;-60
2024/02/04 04:10:16;;;;;;;10.33;1.70;;;;;;;;;;5011892;28;20659;-59
2024/02/04 04:12:42;;;;;;;9.73;2.07;;;;;;;;;;5015284;28;20046;-59
2024/02/04 04:15:07;;;;;;;5.13;1.50;;;;;;;;;;5008492;28;20439;-58
2024/02/04 04:17:32;;;;;;;9.50;1.77;;;;;;;;;;5008883;28;20061;-66
2024/02/04 04:19:58;;;;;;;8.93;1.80;;;;;;;;;;5007448;28;20058;-66
2024/02/04 04:22:23;;;;;;;11.30;2.03;;;;;;;;;;5008624;28;20030;-66
2024/02/04 04:24:48;;;;;;;9.10;1.80;;;;;;;;;;5009854;28;20050;-66
2024/02/04 04:27:14;;;;;;;9.77;1.40;;;;;;;;;;5007095;28;20033;-66
2024/02/04 04:29:39;;;;;;;14.30;2.27;;;;;;;;;;5014340;28;20133;-66
2024/02/04 04:32:04;;;;;;;8.73;1.73;;;;;;;;;;5013292;28;20044;-67
2024/02/04 04:34:30;;;;;;;6.83;1.70;;;;;;;;;;5009761;28;20117;-67
2024/02/04 04:36:55;;;;;;;8.33;1.80;;;;;;;;;;5008877;28;20069;-67
2024/02/04 04:39:20;;;;;;;9.13;1.80;;;;;;;;;;5012796;28;20030;-66
2024/02/04 04:41:45;;;;;;;9.97;2.20;;;;;;;;;;5007374;28;20048;-65
2024/02/04 04:44:11;;;;;;;8.33;2.43;;;;;;;;;;5010307;28;20030;-68
2024/02/04 04:46:42;;;;;;;9.03;2.27;;;;;;;;;;5009885;28;20088;-65
2024/02/04 04:49:07;;;;;;;10.65;2.67;;;;;;;;;;5004946;28;20026;-67
2024/02/04 04:51:33;;;;;;;4.83;1.80;;;;;;;;;;5008304;28;20041;-66
2024/02/04 04:53:58;;;;;;;8.47;2.90;;;;;;;;;;5008414;28;20014;-67
2024/02/04 04:56:24;;;;;;;9.97;3.20;;;;;;;;;;5007639;28;20044;-66
2024/02/04 04:58:50;;;;;;;11.20;2.57;;;;;;;;;;5007449;28;20409;-66
2024/02/04 05:01:15;;;;;;;12.67;3.00;;;;;;;;;;5010993;28;20500;-65
2024/02/04 05:03:41;;;;;;;14.30;3.23;;;;;;;;;;5008803;28;20029;-67
2024/02/04 05:06:06;;;;;;;14.47;3.40;;;;;;;;;;5007775;28;20106;-66
2024/02/04 05:08:31;;;;;;;8.63;3.87;;;;;;;;;;5015779;28;20133;-66
2024/02/04 05:10:56;;;;;;;10.47;3.13;;;;;;;;;;5010726;28;20049;-67
2024/02/04 05:13:22;;;;;;;12.23;3.87;;;;;;;;;;5010722;28;20431;-67
2024/02/04 05:15:47;;;;;;;9.90;3.50;;;;;;;;;;5011144;28;20084;-66
2024/02/04 05:18:12;;;;;;;16.37;3.70;;;;;;;;;;5011366;28;20021;-66
2024/02/04 05:20:37;;;;;;;13.77;4.03;;;;;;;;;;5002099;28;20076;-66
2024/02/04 05:23:03;;;;;;;14.60;4.57;;;;;;;;;;5013775;28;20017;-66
2024/02/04 05:25:28;;;;;;;12.37;4.00;;;;;;;;;;5005289;28;20058;-64
2024/02/04 05:27:53;;;;;;;9.90;3.63;;;;;;;;;;5011440;28;20530;-67
2024/02/04 05:30:18;;;;;;;13.80;3.80;;;;;;;;;;5012101;28;20022;-67
2024/02/04 05:32:44;;;;;;;13.63;3.60;;;;;;;;;;5013209;28;20056;-67
2024/02/04 05:35:10;;;;;;;14.07;4.00;;;;;;;;;;5018098;28;20114;-66
2024/02/04 05:37:35;;;;;;;10.40;3.90;;;;;;;;;;5010480;28;20034;-67
2024/02/04 05:40:00;;;;;;;11.33;4.07;;;;;;;;;;5010550;28;20044;-66
2024/02/04 05:42:26;;;;;;;16.07;5.00;;;;;;;;;;5012145;28;20068;-68
2024/02/04 05:44:51;;;;;;;12.53;4.43;;;;;;;;;;5010838;28;20024;-67
2024/02/04 05:47:16;;;;;;;9.43;3.63;;;;;;;;;;5012165;28;20522;-67
2024/02/04 05:49:41;;;;;;;13.10;4.77;;;;;;;;;;5013228;28;20032;-67
2024/02/04 05:52:07;;;;;;;14.07;4.07;;;;;;;;;;5011859;28;20022;-66
2024/02/04 05:54:36;;;;;;;16.00;4.33;;;;;;;;;;5010234;28;20116;-66
2024/02/04 05:57:02;;;;;;;7.53;3.00;;;;;;;;;;5015236;28;20052;-66
2024/02/04 05:59:27;;;;;;;10.03;3.77;;;;;;;;;;5011379;28;20057;-66
2024/02/04 06:01:52;;;;;;;7.50;3.43;;;;;;;;;;5016212;28;20036;-67
2024/02/04 06:04:17;;;;;;;12.33;3.70;;;;;;;;;;5009084;28;20022;-66
2024/02/04 06:06:43;;;;;;;8.97;3.60;;;;;;;;;;5011406;28;20608;-67
2024/02/04 06:09:08;;;;;;;10.50;3.00;;;;;;;;;;5011839;28;20080;-66
2024/02/04 06:11:33;;;;;;;9.27;2.70;;;;;;;;;;5013147;28;20121;-67
2024/02/04 06:13:58;;;;;;;9.80;3.40;;;;;;;;;;5011589;28;20057;-67
2024/02/04 06:16:24;;;;;;;9.33;3.10;;;;;;;;;;5015068;28;20387;-65
2024/02/04 06:18:49;;;;;;;11.40;2.80;;;;;;;;;;5002787;28;20093;-66
2024/02/04 06:21:14;;;;;;;13.50;2.83;;;;;;;;;;5010109;28;20038;-65
2024/02/04 06:23:40;;;;;;;12.43;2.80;;;;;;;;;;5010657;28;20025;-66
2024/02/04 06:26:05;;;;;;;10.57;2.67;;;;;;;;;;5009712;28;20076;-66
2024/02/04 06:28:30;;;;;;;8.90;3.17;;;;;;;;;;5010379;28;20101;-66
2024/02/04 06:30:55;;;;;;;7.87;2.10;;;;;;;;;;5011164;28;20018;-66
2024/02/04 06:33:22;;;;;;;8.57;2.13;;;;;;;;;;5009322;28;20030;-67
2024/02/04 06:35:47;;;;;;;7.93;2.60;;;;;;;;;;5009131;28;20558;-66
2024/02/04 06:38:12;;;;;;;10.77;2.33;;;;;;;;;;5012363;28;20057;-67
2024/02/04 06:40:38;;;;;;;9.83;2.17;;;;;;;;;;5008871;28;20033;-66
2024/02/04 06:43:03;;;;;;;9.40;2.10;;;;;;;;;;5007178;28;20360;-67
2024/02/04 06:45:28;;;;;;;6.13;1.90;;;;;;;;;;5005611;28;20511;-63
2024/02/04 06:47:53;;;;;;;5.73;1.87;;;;;;;;;;5013289;28;20026;-66
2024/02/04 06:50:19;;;;;;;5.73;1.57;;;;;;;;;;5006182;28;20399;-67
2024/02/04 06:52:45;;;;;;;7.70;1.63;;;;;;;;;;5011444;28;20029;-66
2024/02/04 06:55:10;;;;;;;5.47;1.77;;;;;;;;;;5014315;28;20029;-66
2024/02/04 06:57:36;;;;;;;7.90;1.87;;;;;;;;;;5007925;28;20030;-66
2024/02/04 07:00:01;;;;;;;9.20;2.10;;;;;;;;;;5011442;28;20036;-67
2024/02/04 07:02:26;;;;;;;11.13;2.00;;;;;;;;;;5006100;28;20027;-67
2024/02/04 07:04:52;;;;;;;12.70;1.93;;;;;;;;;;5010913;28;20080;-66
2024/02/04 07:07:18;;;;;;;6.73;1.70;;;;;;;;;;5012292;28;20028;-66
2024/02/04 07:09:43;;;;;;;13.37;1.90;;;;;;;;;;5015707;28;20483;-67
2024/02/04 07:12:08;;;;;;;8.03;1.60;;;;;;;;;;5010399;28;20085;-63
2024/02/04 07:14:33;;;;;;;4.60;1.20;;;;;;;;;;5010975;28;20430;-66
2024/02/04 07:16:59;;;;;;;3.23;1.17;;;;;;;;;;5010317;28;20076;-67
2024/02/04 07:19:24;;;;;;;9.00;2.27;;;;;;;;;;5014106;28;20031;-65
2024/02/04 07:21:49;;;;;;;7.83;1.20;;;;;;;;;;5013033;28;20104;-65
2024/02/04 07:24:14;;;;;;;10.17;2.00;;;;;;;;;;5008003;28;20774;-67
2024/02/04 07:26:40;;;;;;;10.77;2.23;;;;;;;;;;5008323;28;20022;-67
2024/02/04 07:29:05;;;;;;;4.67;1.13;;;;;;;;;;5015635;28;20166;-65
2024/02/04 07:31:30;;;;;;;7.77;1.60;;;;;;;;;;5010096;28;20029;-67
2024/02/04 07:33:55;;;;;;;6.93;1.40;;;;;;;;;;5007700;28;20018;-66
2024/02/04 07:36:21;;;;;;;9.23;1.73;;;;;;;;;;5010668;28;20029;-66
2024/02/04 07:38:46;;;;;;;8.10;1.57;;;;;;;;;;5015662;28;20363;-66
2024/02/04 07:41:13;;;;;;;10.50;1.50;;;;;;;;;;5008222;28;20122;-67
2024/02/04 07:43:38;;;;;;;3.27;1.00;;;;;;;;;;5010599;28;20091;-66
2024/02/04 07:46:03;;;;;;;4.63;1.40;;;;;;;;;;5009317;28;20026;-66
2024/02/04 07:48:29;;;;;;;5.20;1.20;;;;;;;;;;5014748;28;20036;-60
2024/02/04 07:50:54;;;;;;;15.80;2.07;;;;;;;;;;5009394;28;20022;-58
2024/02/04 07:53:19;;;;;;;4.90;1.20;;;;;;;;;;5012194;28;20027;-58
2024/02/04 07:55:45;;;;;;;6.90;1.53;;;;;;;;;;5006940;28;20172;-58
2024/02/04 07:58:10;;;;;;;8.23;1.70;;;;;;;;;;5009607;28;20026;-58
2024/02/04 08:00:35;;;;;;;10.60;1.70;;;;;;;;;;5014738;28;20463;-59
2024/02/04 08:03:00;;;;;;;5.17;1.10;;;;;;;;;;5010249;28;20045;-59
2024/02/04 08:05:25;;;;;;;7.73;1.37;;;;;;;;;;5010216;28;20029;-60
2024/02/04 08:07:51;;;;;;;5.77;1.27;;;;;;;;;;5013256;28;20187;-58
2024/02/04 08:10:17;;;;;;;8.60;1.80;;;;;;;;;;5009598;28;20038;-59
2024/02/04 08:12:42;;;;;;;8.77;1.43;;;;;;;;;;5010012;28;20043;-58
2024/02/04 08:15:08;;;;;;;11.33;1.83;;;;;;;;;;5013219;28;20104;-58
2024/02/04 08:17:33;;;;;;;4.73;1.30;;;;;;;;;;5006767;28;20037;-59
2024/02/04 08:19:58;;;;;;;7.33;1.70;;;;;;;;;;5009788;28;20029;-58
2024/02/04 08:22:24;;;;;;;6.03;1.20;;;;;;;;;;5011424;28;20036;-58
2024/02/04 08:24:50;;;;;;;6.83;1.93;;;;;;;;;;5009709;28;20058;-60
2024/02/04 08:27:16;;;;;;;10.00;1.13;;;;;;;;;;5011256;28;20107;-60
2024/02/04 08:29:41;;;;;;;5.67;1.30;;;;;;;;;;5007172;28;20499;-60
2024/02/04 08:32:06;;;;;;;5.03;1.03;;;;;;;;;;5006467;28;20052;-58
2024/02/04 08:34:32;;;;;;;9.03;1.30;;;;;;;;;;5006920;28;20073;-58
2024/02/04 08:36:57;;;;;;;5.93;1.40;;;;;;;;;;5008567;28;20038;-58
2024/02/04 08:39:23;;;;;;;6.77;1.10;;;;;;;;;;5008351;28;20091;-58
2024/02/04 08:41:48;;;;;;;10.97;1.40;;;;;;;;;;5011953;28;20120;-59
2024/02/04 08:44:13;;;;;;;5.77;1.43;;;;;;;;;;5013374;28;20037;-59
2024/02/04 08:46:38;;;;;;;6.47;1.30;;;;;;;;;;5018681;28;20034;-58
2024/02/04 08:49:04;;;;;;;6.53;1.40;;;;;;;;;;5010246;28;20026;-58
2024/02/04 08:51:29;;;;;;;6.90;1.50;;;;;;;;;;5013671;28;20478;-59
2024/02/04 08:53:54;;;;;;;9.03;1.47;;;;;;;;;;5010633;28;20110;-58
2024/02/04 08:56:20;;;;;;;9.67;1.30;;;;;;;;;;5009443;28;20037;-58
2024/02/04 08:58:45;;;;;;;5.07;1.20;;;;;;;;;;5012319;28;20073;-67
2024/02/04 09:01:10;;;;;;;7.53;1.40;;;;;;;;;;5010733;28;20037;-67
2024/02/04 09:03:36;;;;;;;6.17;1.40;;;;;;;;;;5012393;28;20037;-65
2024/02/04 09:06:01;;;;;;;8.87;1.77;;;;;;;;;;5014439;28;20441;-66
2024/02/04 09:08:27;;;;;;;7.40;1.73;;;;;;;;;;5013728;28;20030;-66
2024/02/04 09:10:52;;;;;;;9.23;1.47;;;;;;;;;;5012633;28;20034;-66
2024/02/04 09:13:17;;;;;;;5.20;1.67;;;;;;;;;;5011022;28;20045;-66
2024/02/04 09:15:43;;;;;;;10.57;1.80;;;;;;;;;;5013669;28;20038;-65
2024/02/04 09:18:08;;;;;;;8.53;1.47;;;;;;;;;;5016847;28;20092;-67
2024/02/04 09:20:33;;;;;;;11.87;1.90;;;;;;;;;;5009115;28;20130;-66
2024/02/04 09:22:58;;;;;;;5.17;1.03;;;;;;;;;;5013309;28;20490;-66
2024/02/04 09:25:24;;;;;;;9.40;1.70;;;;;;;;;;5009099;28;20046;-67
2024/02/04 09:27:49;;;;;;;7.90;1.57;;;;;;;;;;5016386;28;20050;-66
2024/02/04 09:30:15;;;;;;;7.57;1.67;;;;;;;;;;5012558;28;20034;-67
2024/02/04 09:32:40;;;;;;;14.17;2.00;;;;;;;;;;5009941;28;20148;-66
2024/02/04 09:35:06;;;;;;;9.07;1.83;;;;;;;;;;5009097;28;20034;-66
2024/02/04 09:37:31;;;;;;;8.10;1.40;;;;;;;;;;5008951;28;20310;-67
2024/02/04 09:39:56;;;;;;;11.90;1.80;;;;;;;;;;5010350;28;20099;-67
2024/02/04 09:42:22;;;;;;;7.53;1.77;;;;;;;;;;5009507;28;20026;-66
2024/02/04 09:44:48;;;;;;;8.90;1.20;;;;;;;;;;5012136;28;20434;-66
2024/02/04 09:47:14;;;;;;;6.37;1.57;;;;;;;;;;5010281;28;20109;-67
2024/02/04 09:49:39;;;;;;;6.93;1.37;;;;;;;;;;5016073;28;20048;-67
2024/02/04 09:52:07;;;;;;;9.20;1.80;;;;;;;;;;5012557;28;20026;-66
2024/02/04 09:54:34;;;;;;;5.40;1.70;;;;;;;;;;5010714;28;20042;-65
2024/02/04 09:56:59;;;;;;;9.13;1.70;;;;;;;;;;5012058;28;20030;-65
2024/02/04 09:59:24;;;;;;;9.77;2.00;;;;;;;;;;5015245;28;20084;-64
2024/02/04 10:01:50;;;;;;;7.97;2.20;;;;;;;;;;5010549;28;20026;-66
2024/02/04 10:04:16;;;;;;;6.73;1.77;;;;;;;;;;5010796;28;20096;-65
2024/02/04 10:06:41;;;;;;;6.63;1.97;;;;;;;;;;5009999;28;20371;-65
2024/02/04 10:09:06;;;;;;;7.70;1.50;;;;;;;;;;5008280;28;20017;-65
2024/02/04 10:11:31;;;;;;;10.33;2.00;;;;;;;;;;5011889;28;20041;-65
2024/02/04 10:13:57;;;;;;;6.10;1.80;;;;;;;;;;5006936;28;20036;-65
2024/02/04 10:16:22;;;;;;;10.07;1.90;;;;;;;;;;5009948;28;20363;-65
2024/02/04 10:18:50;;;;;;;9.00;1.70;;;;;;;;;;5013028;28;20034;-64
2024/02/04 10:21:19;;;;;;;9.57;2.27;;;;;;;;;;5008495;28;20502;-64
2024/02/04 10:23:45;;;;;;;13.30;2.33;;;;;;;;;;5008212;28;20021;-65
2024/02/04 10:26:11;;;;;;;8.73;1.60;;;;;;;;;;5011182;28;20069;-65
2024/02/04 10:28:37;;;;;;;7.17;1.83;;;;;;;;;;5013648;28;20033;-65
2024/02/04 10:31:02;;;;;;;12.80;2.07;;;;;;;;;;5008257;28;20034;-65
2024/02/04 10:33:30;;;;;;;8.97;1.87;;;;;;;;;;5009185;28;20022;-65
2024/02/04 10:35:55;;;;;;;8.57;2.20;;;;;;;;;;5006093;28;20036;-65
2024/02/04 10:38:20;;;;;;;13.00;2.73;;;;;;;;;;5011208;28;20038;-65
2024/02/04 10:40:46;;;;;;;6.23;1.93;;;;;;;;;;5009950;28;20030;-65
2024/02/04 10:43:11;;;;;;;8.47;1.90;;;;;;;;;;5010521;28;20475;-65
2024/02/04 10:45:38;;;;;;;11.70;2.10;;;;;;;;;;5006700;28;20041;-65
2024/02/04 10:48:05;;;;;;;7.57;2.17;;;;;;;;;;5011161;28;20021;-65
2024/02/04 10:50:32;;;;;;;11.80;2.40;;;;;;;;;;5011170;28;20034;-65
2024/02/04 10:52:59;;;;;;;9.60;2.07;;;;;;;;;;5017548;28;20044;-65
2024/02/04 10:55:28;;;;;;;11.00;3.70;;;;;;;;;;5014028;28;20030;-65
2024/02/04 10:57:54;;;;;;;5.73;1.60;;;;;;;;;;5019364;28;20523;-65
2024/02/04 11:00:20;;;;;;;5.93;1.90;;;;;;;;;;5013871;28;20042;-64
2024/02/04 11:02:47;;;;;;;9.03;2.30;;;;;;;;;;5009314;28;20041;-65
2024/02/04 11:05:12;;;;;;;6.57;1.90;;;;;;;;;;5008735;28;20038;-64
2024/02/04 11:07:38;;;;;;;8.17;2.33;;;;;;;;;;5010530;28;20053;-65
2024/02/04 11:10:04;;;;;;;7.03;1.40;;;;;;;;;;5015659;28;20033;-65
2024/02/04 11:12:30;;;;;;;8.03;1.90;;;;;;;;;;5008988;28;20057;-64
2024/02/04 11:14:59;;;;;;;7.13;1.63;;;;;;;;;;5013810;28;20455;-65
2024/02/04 11:17:28;;;;;;;6.53;1.70;;;;;;;;;;5008188;28;20426;-67
2024/02/04 11:20:00;;;;;;;8.03;2.00;;;;;;;;;;5015954;28;20143;-58
2024/02/04 11:22:34;;;;;;;6.83;1.87;;;;;;;;;;5010371;28;20029;-60
2024/02/04 11:25:18;;;;;;;11.77;1.60;;;;;;;;;;4998161;28;20057;-58
2024/02/04 11:27:44;;;;;;;9.30;1.70;;;;;;;;;;4983716;28;20018;-59
2024/02/04 11:30:09;;;;;;;8.43;1.83;;;;;;;;;;4991245;28;20048;-60
2024/02/04 11:32:35;;;;;;;9.97;1.90;;;;;;;;;;4988352;28;20038;-58
2024/02/04 11:35:02;;;;;;;8.03;1.77;;;;;;;;;;4990759;28;20565;-59
2024/02/04 11:37:28;;;;;;;7.17;1.70;;;;;;;;;;4988092;28;20041;-59
2024/02/04 11:39:55;;;;;;;5.27;1.40;;;;;;;;;;4990382;28;20038;-59
2024/02/04 11:42:22;;;;;;;8.97;1.80;;;;;;;;;;4986303;28;20029;-60
2024/02/04 11:44:47;;;;;;;5.47;1.33;;;;;;;;;;4996919;28;20455;-58
2024/02/04 11:47:22;;;;;;;2.97;1.17;;;;;;;;;;4985264;28;20033;-60
2024/02/04 11:49:53;;;;;;;6.07;1.80;;;;;;;;;;4987593;28;20084;-60
2024/02/04 11:52:19;;;;;;;5.43;1.27;;;;;;;;;;4987642;28;20035;-60
2024/02/04 11:54:44;;;;;;;4.47;1.40;;;;;;;;;;4991657;28;20037;-59
2024/02/04 11:57:09;;;;;;;4.07;1.10;;;;;;;;;;4997665;28;20064;-60
2024/02/04 11:59:35;;;;;;;6.73;1.87;;;;;;;;;;4993854;28;20121;-58
2024/02/04 12:02:06;;;;;;;3.00;1.43;;;;;;;;;;4989037;28;20028;-59
2024/02/04 12:04:31;;;;;;;3.90;1.30;;;;;;;;;;4992796;28;20034;-60
2024/02/04 12:06:57;;;;;;;2.33;0.93;;;;;;;;;;4999200;28;20025;-59
2024/02/04 12:09:22;;;;;;;4.90;1.57;;;;;;;;;;4995931;28;20033;-58
2024/02/04 12:11:47;;;;;;;7.30;1.30;;;;;;;;;;4994800;28;20040;-59
2024/02/04 12:14:13;;;;;;;6.00;1.30;;;;;;;;;;4993855;28;20049;-58
2024/02/04 12:16:39;;;;;;;7.13;1.67;;;;;;;;;;4989592;28;20049;-58
2024/02/04 12:19:05;;;;;;;4.70;1.10;;;;;;;;;;4991988;28;20422;-60
2024/02/04 12:21:31;;;;;;;5.57;1.70;;;;;;;;;;4995709;28;20117;-60
2024/02/04 12:23:57;;;;;;;9.97;1.73;;;;;;;;;;4994164;28;20078;-60
2024/02/04 12:26:22;;;;;;;3.93;1.10;;;;;;;;;;5010989;28;20374;-59
2024/02/04 12:28:48;;;;;;;4.17;1.10;;;;;;;;;;5011539;28;20030;-59
2024/02/04 12:31:20;;;;;;;4.97;1.20;;;;;;;;;;5016323;28;20788;-59
2024/02/04 12:33:57;;;;;;;10.47;1.47;;;;;;;;;;5004802;28;20034;-59
2024/02/04 12:36:29;;;;;;;3.50;0.83;;;;;;;;;;5005709;28;20034;-60
2024/02/04 12:38:56;;;;;;;5.47;1.37;;;;;;;;;;5008579;28;20029;-59
2024/02/04 12:41:24;;;;;;;6.77;1.60;;;;;;;;;;5015353;28;20119;-60
2024/02/04 12:43:54;;;;;;;8.87;1.10;;;;;;;;;;5006021;28;20116;-60
2024/02/04 12:46:19;;;;;;;2.03;0.90;;;;;;;;;;5015629;28;20494;-58
2024/02/04 12:48:45;;;;;;;7.27;1.30;;;;;;;;;;5012739;28;20026;-59
2024/02/04 12:51:13;;;;;;;4.53;1.10;;;;;;;;;;5006318;28;20124;-60
2024/02/04 12:53:38;;;;;;;4.53;1.23;;;;;;;;;;5012063;28;20486;-59
2024/02/04 12:56:04;;;;;;;5.47;0.97;;;;;;;;;;5010074;28;20083;-59
2024/02/04 12:58:29;;;;;;;4.87;0.90;;;;;;;;;;5017157;28;20021;-60
2024/02/04 13:01:01;;;;;;;6.80;1.27;;;;;;;;;;5006362;28;20033;-59
2024/02/04 13:03:27;;;;;;;5.17;1.10;;;;;;;;;;5014211;28;20021;-58
2024/02/04 13:05:57;;;;;;;5.17;0.90;;;;;;;;;;5009074;28;20378;-60
2024/02/04 13:08:22;;;;;;;5.73;0.93;;;;;;;;;;5014326;28;20030;-58
2024/02/04 13:10:53;;;;;;;2.87;1.20;;;;;;;;;;5008669;28;20517;-60
2024/02/04 13:13:18;;;;;;;4.68;1.00;;;;;;;;;;5012624;28;20080;-59
2024/02/04 13:15:43;;;;;;;7.47;1.10;;;;;;;;;;5007811;28;20061;-60
2024/02/04 13:18:12;;;;;;;4.63;1.00;;;;;;;;;;5004100;28;20403;-59
2024/02/04 13:20:40;;;;;;;3.93;1.20;;;;;;;;;;5009153;28;20033;-59
2024/02/04 13:23:05;;;;;;;5.73;0.90;;;;;;;;;;5003288;28;20438;-61
2024/02/04 13:25:31;;;;;;;3.73;0.80;;;;;;;;;;5008969;28;20052;-60
2024/02/04 13:27:56;;;;;;;6.87;1.17;;;;;;;;;;5006310;28;20026;-59
2024/02/04 13:30:22;;;;;;;4.87;1.10;;;;;;;;;;5012605;28;20509;-59
2024/02/04 13:32:47;;;;;;;8.17;1.50;;;;;;;;;;5005110;28;20034;-60
2024/02/04 13:35:15;;;;;;;7.20;1.30;;;;;;;;;;5017336;28;20055;-59
2024/02/04 13:37:41;;;;;;;3.83;1.00;;;;;;;;;;5008741;28;20439;-59
2024/02/04 13:40:08;;;;;;;3.90;1.30;;;;;;;;;;5009763;28;20030;-60
2024/02/04 13:42:34;;;;;;;6.10;1.30;;;;;;;;;;5009121;28;20022;-59
2024/02/04 13:45:00;;;;;;;7.83;1.70;;;;;;;;;;5014351;28;20038;-60
2024/02/04 13:47:25;;;;;;;5.73;1.60;;;;;;;;;;5017346;28;20057;-59
2024/02/04 13:49:51;;;;;;;6.30;1.87;;;;;;;;;;5009305;28;20097;-59
2024/02/04 13:52:16;;;;;;;5.43;1.40;;;;;;;;;;5011273;28;20138;-59
2024/02/04 13:54:41;;;;;;;4.63;1.00;;;;;;;;;;5013869;28;20695;-59
2024/02/04 13:57:07;;;;;;;5.77;1.67;;;;;;;;;;5016891;28;20367;-59
2024/02/04 13:59:32;;;;;;;3.00;1.10;;;;;;;;;;5006865;28;20040;-60
2024/02/04 14:01:57;;;;;;;4.67;1.23;;;;;;;;;;5015625;28;20044;-59
2024/02/04 14:04:23;;;;;;;5.30;1.43;;;;;;;;;;5016121;28;20491;-59
2024/02/04 14:06:48;;;;;;;4.10;1.10;;;;;;;;;;5004829;28;20462;-59
2024/02/04 14:09:13;;;;;;;4.23;1.30;;;;;;;;;;5008079;28;20470;-58
2024/02/04 14:11:38;;;;;;;7.53;2.47;;;;;;;;;;5012187;28;20033;-60
2024/02/04 14:14:04;;;;;;;8.87;1.77;;;;;;;;;;5006004;28;20211;-59
2024/02/04 14:16:29;;;;;;;5.33;1.27;;;;;;;;;;5016006;28;20044;-59
2024/02/04 14:18:55;;;;;;;5.00;1.40;;;;;;;;;;5016917;28;20536;-58
2024/02/04 14:21:20;;;;;;;6.50;1.83;;;;;;;;;;5005751;28;20033;-58
2024/02/04 14:23:45;;;;;;;5.33;1.47;;;;;;;;;;5013891;28;20044;-60
2024/02/04 14:26:20;;;;;;;8.07;2.07;;;;;;;;;;5008862;28;20108;-60
2024/02/04 14:28:45;;;;;;;5.80;1.70;;;;;;;;;;5012559;28;20030;-60